AA4349 / N425YX 7700 Squawk Report (22nd of February, 2019)

Aircraft E175 Reg No. N425YX Age N/A
Model Emb-175 Jet engines 2 First flight N/A
Registered 15-04-14 Rollout N/A Delivered 15-04-14
Construction No. 17000396 Line No. N/A Series 200LR
ADSHEX A5106E Airline name American Eagle Airlines Owner Republic Airline
Airfield based Indianapolis-International~IN~N First tracked 2017-07-13 02:30:00

Flight history for N425YX

Route Flight No Date Playback
Miami Intl (MIA) - Richmond Intl (RIC) AA4455 2019-03-21 04:32:00
Richmond Intl (RIC) - Miami Intl (MIA) AA4582 2019-03-21 02:41:00
Exuma Intl (GGT) - Miami Intl (MIA) AA4441 2019-03-20 19:18:00
Eppley Airfield (OMA) - Miami Intl (MIA) AA4524 2019-03-20 13:09:00
Miami Intl (MIA) - Eppley Airfield (OMA) AA4523 2019-03-20 10:19:00
Louis Armstrong New Orleans Intl (MSY) - Miami Intl (MIA) AA4432 2019-03-19 22:53:00
Ronald Reagan Washington Natl (DCA) - Louis Armstrong New Orleans Intl (MSY) AA4449 2019-03-19 21:35:00
Ronald Reagan Washington Natl (DCA) - Hartsfield Jackson Atlanta Intl (ATL) - Ronald Reagan Washington Natl (DCA) AA4508 2019-03-19 16:42:00
Buffalo Niagara Intl (BUF) - Ronald Reagan Washington Natl (DCA) AA4631 2019-03-19 13:01:00
Ronald Reagan Washington Natl (DCA) - Buffalo Niagara Intl (BUF) AA4361 2019-03-19 10:37:00
Ronald Reagan Washington Natl (DCA) - La Guardia (LGA) - Ronald Reagan Washington Natl (DCA) AA4326 2019-03-19 02:38:00
Ronald Reagan Washington Natl (DCA) - La Guardia (LGA) - Ronald Reagan Washington Natl (DCA) AA4319 2019-03-18 21:01:00
Ronald Reagan Washington Natl (DCA) - Syracuse Hancock Intl (SYR) - Ronald Reagan Washington Natl (DCA) AA4475 2019-03-18 17:16:00
Charleston Afb Intl (CHS) - Ronald Reagan Washington Natl (DCA) AA4689 2019-03-18 14:21:00
Philadelphia Intl (PHL) - Charleston Afb Intl (CHS) AA4374 2019-03-18 11:30:00
Philadelphia Intl (PHL) - Indianapolis Intl (IND) - Philadelphia Intl (PHL) AA4444 2019-03-17 23:27:00
Philadelphia Intl (PHL) - Bradley Intl (BDL) - Philadelphia Intl (PHL) AA4381 2019-03-17 17:56:00
Indianapolis Intl (IND) - Philadelphia Intl (PHL) AA4345 2019-03-17 15:06:00
Philadelphia Intl (PHL) - Indianapolis Intl (IND) AA4501 2019-03-17 00:06:00
Melbourne Intl (MLB) - Philadelphia Intl (PHL) AA4649 2019-03-16 20:16:00
Time Lat Lon Altitude Heading Speed Vertical Rate
2019-02-22 11:11:27 GMT 35.179573 -80.948982 875 357 137 -768
2019-02-22 11:11:13 GMT 35.171242 -80.948357 1,025 357 137 -768
2019-02-22 11:10:56 GMT 35.160553 -80.947433 1,225 356 135 -640
2019-02-22 11:10:52 GMT 35.157806 -80.947212 1,300 357 133 -768
2019-02-22 11:10:42 GMT 35.151581 -80.946533 1,425 356 135 -640
2019-02-22 11:10:31 GMT 35.145309 -80.946068 1,525 357 130 -768
2019-02-22 11:10:22 GMT 35.138794 -80.945549 1,675 357 131 -704
2019-02-22 11:10:09 GMT 35.131859 -80.945091 1,800 357 128 -640
2019-02-22 11:09:59 GMT 35.125580 -80.944633 1,925 357 129 -832
2019-02-22 11:09:50 GMT 35.120499 -80.944237 2,025 357 136 -768
2019-02-22 11:09:36 GMT 35.111115 -80.943512 2,225 357 141 -832
2019-02-22 11:09:29 GMT 35.106716 -80.943146 2,300 356 150 -832
2019-02-22 11:09:14 GMT 35.096237 -80.942108 2,525 355 157 -896
2019-02-22 11:09:07 GMT 35.090836 -80.941383 2,625 354 162 -768
2019-02-22 11:08:57 GMT 35.075546 -80.940872 2,725 17 152 64
2019-02-22 11:08:48 GMT 35.075546 -80.940872 2,725 17 152 64
2019-02-22 11:08:35 GMT 35.067753 -80.943436 2,725 17 153 -64
2019-02-22 11:08:25 GMT 35.061081 -80.945976 2,725 17 155 128
2019-02-22 11:08:10 GMT 35.050278 -80.950180 2,725 18 168 -64
2019-02-22 11:08:04 GMT 35.046021 -80.952194 2,725 30 179 -192
2019-02-22 11:07:55 GMT 35.039265 -80.958305 2,725 51 179 192
2019-02-22 11:07:44 GMT 35.035904 -80.967667 2,725 80 185 -64
2019-02-22 11:07:35 GMT 35.035080 -80.978882 2,725 85 192 -192
2019-02-22 11:07:24 GMT 35.034393 -80.989700 2,725 86 192 256
2019-02-22 11:07:13 GMT 35.033890 -81.000626 2,700 87 197 -64
2019-02-22 11:07:03 GMT 35.033443 -81.012672 2,725 88 207 -64
2019-02-22 11:06:53 GMT 35.033203 -81.024841 2,725 91 220 64
2019-02-22 11:06:43 GMT 35.034714 -81.038460 2,725 108 236 -384
2019-02-22 11:06:31 GMT 35.041077 -81.051018 2,875 137 245 -896
2019-02-22 11:06:22 GMT 35.050484 -81.058960 3,175 156 247 -2688
2019-02-22 11:06:10 GMT 35.061935 -81.064964 3,600 155 250 -2112
2019-02-22 11:06:01 GMT 35.072128 -81.070976 3,950 152 257 -2176
2019-02-22 11:05:51 GMT 35.083282 -81.078712 4,400 148 264 -2752
2019-02-22 11:05:40 GMT 35.093822 -81.086716 4,875 147 265 -2752
2019-02-22 11:05:29 GMT 35.104980 -81.095413 5,350 146 269 -2880
2019-02-22 11:05:19 GMT 35.115562 -81.104164 5,875 145 272 -3008
2019-02-22 11:05:09 GMT 35.126362 -81.113319 6,375 145 275 -2816
2019-02-22 11:04:59 GMT 35.137489 -81.122360 6,875 146 279 -2752
2019-02-22 11:04:46 GMT 35.150059 -81.132484 7,400 145 282 -2880
2019-02-22 11:04:38 GMT 35.160347 -81.141296 7,875 142 287 -3008
2019-02-22 11:04:27 GMT 35.170822 -81.152634 8,300 132 296 -1856
2019-02-22 11:04:17 GMT 35.179760 -81.166367 8,600 127 301 -1152
2019-02-22 11:03:51 GMT 35.201202 -81.200569 9,000 128 314 0
We lost coverage of the aircraft here for a total of 6 minutes
2019-02-22 10:58:18 GMT 35.466335 -81.759789 19,925 114 380 -1728
2019-02-22 10:58:13 GMT 35.469219 -81.767616 19,725 114 380 -1728
2019-02-22 10:57:57 GMT 35.480530 -81.798706 20,250 114 383 -2112
2019-02-22 10:57:19 GMT 35.508224 -81.874863 21,525 109 509 64
2019-02-22 10:53:52 GMT 35.675076 -82.396523 29,000 109 509 64
2019-02-22 10:53:11 GMT 35.708405 -82.509483 29,000 109 508 64
2019-02-22 10:53:06 GMT 35.712433 -82.523064 29,000 109 509 64
2019-02-22 10:52:55 GMT 35.721359 -82.553444 29,000 109 509 0
2019-02-22 10:52:39 GMT 35.734131 -82.596870 29,000 109 509 -64
2019-02-22 10:52:29 GMT 35.741867 -82.623138 29,000 109 508 -64
2019-02-22 10:52:04 GMT 35.761475 -82.690063 29,000 109 512 0
2019-02-22 10:52:00 GMT 35.765167 -82.702789 29,000 109 512 0
2019-02-22 10:51:56 GMT 35.769012 -82.715897 29,000 109 512 0
2019-02-22 10:51:47 GMT 35.775421 -82.737862 29,000 109 512 0
2019-02-22 10:51:30 GMT 35.789841 -82.787132 29,000 109 510 64
2019-02-22 10:51:23 GMT 35.794762 -82.803894 29,000 109 509 0
2019-02-22 10:51:16 GMT 35.801090 -82.825691 29,000 109 508 0
2019-02-22 10:51:04 GMT 35.809982 -82.856079 29,000 109 508 0
2019-02-22 10:50:55 GMT 35.817215 -82.880920 29,000 109 509 -64
2019-02-22 10:50:50 GMT 35.820457 -82.892136 29,000 109 509 -64
2019-02-22 10:50:44 GMT 35.825905 -82.910896 29,000 109 508 128
2019-02-22 10:50:32 GMT 35.835251 -82.943054 29,000 109 509 0
2019-02-22 10:50:23 GMT 35.842850 -82.969269 29,000 109 509 -128
2019-02-22 10:50:10 GMT 35.852600 -83.002853 29,000 109 508 64
2019-02-22 10:50:04 GMT 35.857315 -83.019157 29,000 109 506 0
2019-02-22 10:49:56 GMT 35.863998 -83.042274 29,000 109 507 64
2019-02-22 10:49:43 GMT 35.873932 -83.076721 29,000 109 506 64
2019-02-22 10:49:38 GMT 35.877731 -83.089996 29,000 109 506 128
2019-02-22 10:49:26 GMT 35.886429 -83.120216 29,000 109 506 -64
2019-02-22 10:49:18 GMT 35.893021 -83.143044 29,000 109 506 64
2019-02-22 10:49:13 GMT 35.897316 -83.157974 29,000 109 506 0
2019-02-22 10:49:04 GMT 35.905518 -83.186478 29,000 109 503 -64
2019-02-22 10:48:56 GMT 35.910069 -83.202446 29,000 109 501 -64
2019-02-22 10:48:53 GMT 35.913254 -83.213486 29,000 109 499 -64
2019-02-22 10:48:47 GMT 35.917145 -83.226929 29,000 109 498 -64
2019-02-22 10:48:42 GMT 35.922180 -83.244438 29,000 109 495 64
2019-02-22 10:48:39 GMT 35.925201 -83.255135 29,000 109 493 64
2019-02-22 10:48:31 GMT 35.929996 -83.271690 29,000 109 490 64
2019-02-22 10:48:26 GMT 35.933167 -83.282776 29,000 109 488 64
2019-02-22 10:48:20 GMT 35.937973 -83.299538 29,000 109 485 -64
2019-02-22 10:48:15 GMT 35.941399 -83.311546 29,000 109 484 0
2019-02-22 10:48:11 GMT 35.945114 -83.324547 29,000 109 482 0
2019-02-22 10:48:06 GMT 35.948242 -83.335388 29,000 109 479 64
2019-02-22 10:47:58 GMT 35.955093 -83.359337 29,000 109 475 64
2019-02-22 10:47:55 GMT 35.956203 -83.363091 29,000 109 475 -128
2019-02-22 10:47:49 GMT 35.960533 -83.378342 29,000 109 470 -64
2019-02-22 10:47:44 GMT 35.964478 -83.391953 29,000 109 467 64
2019-02-22 10:47:38 GMT 35.969330 -83.409004 29,000 109 464 -64
2019-02-22 10:47:35 GMT 35.970356 -83.412529 29,000 109 462 -64
2019-02-22 10:47:32 GMT 35.973038 -83.421989 29,000 109 460 -64
2019-02-22 10:47:28 GMT 35.975601 -83.430862 29,000 109 458 -128
2019-02-22 10:47:23 GMT 35.979107 -83.443146 29,000 109 452 128
2019-02-22 10:47:19 GMT 35.982738 -83.455833 29,000 109 452 64
2019-02-22 10:47:13 GMT 35.986370 -83.468513 29,000 109 451 -64
2019-02-22 10:47:06 GMT 35.991585 -83.486748 29,000 109 450 64
2019-02-22 10:47:03 GMT 35.993362 -83.493057 29,000 109 450 0
2019-02-22 10:46:56 GMT 35.998241 -83.510178 29,000 109 450 -128
2019-02-22 10:46:53 GMT 36.000149 -83.516899 29,000 109 450 -64
2019-02-22 10:46:46 GMT 36.004803 -83.533203 29,000 109 450 64
2019-02-22 10:46:43 GMT 36.006866 -83.540550 29,000 109 451 -64
2019-02-22 10:46:40 GMT 36.009178 -83.548691 29,000 109 451 -64
2019-02-22 10:46:37 GMT 36.011929 -83.558449 29,000 109 450 -64
2019-02-22 10:46:31 GMT 36.014877 -83.568878 29,000 109 451 -64
2019-02-22 10:46:25 GMT 36.019501 -83.585243 29,000 109 451 64
2019-02-22 10:46:20 GMT 36.023052 -83.597366 29,000 110 450 128
2019-02-22 10:46:16 GMT 36.027191 -83.610252 29,000 112 447 -128
2019-02-22 10:46:11 GMT 36.030685 -83.619926 29,000 114 445 -128
2019-02-22 10:46:08 GMT 36.032684 -83.625069 29,000 116 443 -64
2019-02-22 10:46:04 GMT 36.036072 -83.633141 29,000 118 440 128
2019-02-22 10:46:00 GMT 36.040054 -83.641830 29,000 120 437 0
2019-02-22 10:45:55 GMT 36.046417 -83.654533 29,000 123 433 -64
2019-02-22 10:45:51 GMT 36.050903 -83.662605 29,000 125 430 64
2019-02-22 10:45:48 GMT 36.053238 -83.666611 29,000 126 430 64
2019-02-22 10:45:43 GMT 36.059601 -83.676682 29,000 129 425 0
2019-02-22 10:45:39 GMT 36.064484 -83.683678 29,000 132 421 -64
2019-02-22 10:45:34 GMT 36.072956 -83.694839 29,000 134 418 0
2019-02-22 10:45:28 GMT 36.081059 -83.705124 29,000 134 417 -64
2019-02-22 10:45:22 GMT 36.088085 -83.714127 29,000 133 417 64
2019-02-22 10:45:17 GMT 36.093441 -83.720963 29,000 134 418 128
2019-02-22 10:45:13 GMT 36.100708 -83.730240 29,000 134 418 0
2019-02-22 10:45:08 GMT 36.106892 -83.738144 29,000 134 418 -64
2019-02-22 10:45:01 GMT 36.115219 -83.748779 29,000 134 418 64
2019-02-22 10:44:55 GMT 36.123322 -83.759132 29,000 133 419 64
2019-02-22 10:44:52 GMT 36.129517 -83.767067 29,000 133 419 0
2019-02-22 10:44:47 GMT 36.135429 -83.774666 29,000 133 419 0
2019-02-22 10:44:41 GMT 36.142731 -83.783974 29,000 133 419 0
2019-02-22 10:44:36 GMT 36.149734 -83.792892 29,000 133 419 -64
2019-02-22 10:44:30 GMT 36.157288 -83.802567 29,000 133 419 64
2019-02-22 10:44:26 GMT 36.163742 -83.810806 29,000 134 418 64
2019-02-22 10:44:20 GMT 36.171295 -83.820419 29,000 134 417 -192
2019-02-22 10:44:14 GMT 36.179352 -83.830719 29,000 134 417 0
2019-02-22 10:44:08 GMT 36.187408 -83.841019 29,000 133 415 0
2019-02-22 10:44:05 GMT 36.192215 -83.847198 29,000 133 415 128
2019-02-22 10:43:59 GMT 36.200974 -83.858406 29,000 133 414 64
2019-02-22 10:43:56 GMT 36.203384 -83.861565 29,000 133 414 0
2019-02-22 10:43:53 GMT 36.206795 -83.865891 29,000 133 414 0
2019-02-22 10:43:48 GMT 36.213264 -83.874184 29,000 133 415 -64
2019-02-22 10:43:43 GMT 36.220963 -83.884109 29,000 133 415 -128
2019-02-22 10:43:38 GMT 36.228161 -83.893295 29,000 133 415 0
2019-02-22 10:43:34 GMT 36.235931 -83.903275 29,000 133 415 64
2019-02-22 10:43:26 GMT 36.242844 -83.912148 29,000 133 415 64
2019-02-22 10:43:23 GMT 36.247650 -83.918266 29,000 133 415 64
2019-02-22 10:43:18 GMT 36.254837 -83.927544 29,000 133 415 0
2019-02-22 10:43:12 GMT 36.261978 -83.936691 29,000 133 416 0
2019-02-22 10:43:06 GMT 36.270035 -83.946991 29,000 133 416 -128
2019-02-22 10:43:02 GMT 36.275894 -83.954544 29,000 133 416 -64
2019-02-22 10:42:57 GMT 36.283188 -83.963890 29,000 133 417 64
2019-02-22 10:42:51 GMT 36.290169 -83.972832 29,000 133 417 64
2019-02-22 10:42:46 GMT 36.300064 -83.985619 29,000 133 417 0
2019-02-22 10:42:40 GMT 36.304276 -83.990990 29,000 133 417 -64
2019-02-22 10:42:36 GMT 36.311188 -83.999924 29,000 133 417 0
2019-02-22 10:42:30 GMT 36.318283 -84.009018 29,000 133 418 -64
2019-02-22 10:42:25 GMT 36.325970 -84.018997 29,000 133 420 -64
2019-02-22 10:42:19 GMT 36.332439 -84.027290 29,000 133 420 64
2019-02-22 10:42:14 GMT 36.339798 -84.036774 29,000 133 421 0
2019-02-22 10:42:11 GMT 36.344696 -84.043060 29,000 133 421 -64
2019-02-22 10:42:03 GMT 36.354038 -84.055168 29,000 133 422 0
2019-02-22 10:41:58 GMT 36.360306 -84.063210 29,000 133 422 64
2019-02-22 10:41:53 GMT 36.368191 -84.073402 29,000 133 422 -64
2019-02-22 10:41:47 GMT 36.375828 -84.083160 29,000 133 422 -64
2019-02-22 10:41:42 GMT 36.383011 -84.092506 29,000 133 423 64
2019-02-22 10:41:38 GMT 36.388813 -84.099991 29,000 133 423 -64
2019-02-22 10:41:32 GMT 36.396652 -84.110123 29,000 133 423 64
2019-02-22 10:41:27 GMT 36.403385 -84.118752 29,000 133 422 64
2019-02-22 10:41:21 GMT 36.410706 -84.128265 29,000 133 423 64
2019-02-22 10:41:16 GMT 36.417847 -84.137482 29,000 133 423 -64
2019-02-22 10:41:12 GMT 36.424519 -84.146095 29,000 133 423 -64
2019-02-22 10:41:06 GMT 36.432247 -84.156090 29,000 133 424 -64
2019-02-22 10:41:01 GMT 36.438763 -84.164505 29,000 133 424 64
2019-02-22 10:40:55 GMT 36.446350 -84.174385 29,000 133 424 64
2019-02-22 10:40:50 GMT 36.453426 -84.183502 29,000 133 423 -64
2019-02-22 10:40:45 GMT 36.461288 -84.193665 29,000 133 423 0
2019-02-22 10:40:40 GMT 36.467953 -84.202255 29,000 133 422 -64
2019-02-22 10:40:34 GMT 36.474838 -84.211182 29,000 133 421 0
2019-02-22 10:40:29 GMT 36.482105 -84.220604 29,000 133 420 64
2019-02-22 10:40:24 GMT 36.489349 -84.230003 29,000 133 420 64
2019-02-22 10:40:19 GMT 36.496490 -84.239250 29,000 133 420 0
2019-02-22 10:40:13 GMT 36.503052 -84.247780 29,000 133 419 0
2019-02-22 10:40:08 GMT 36.510315 -84.257179 29,000 133 418 128
2019-02-22 10:40:02 GMT 36.518044 -84.267242 29,000 133 415 -128
2019-02-22 10:39:57 GMT 36.524597 -84.275726 29,000 133 415 -64
2019-02-22 10:39:52 GMT 36.531601 -84.284821 29,000 133 413 -64
2019-02-22 10:39:47 GMT 36.538376 -84.293571 29,000 133 412 0
2019-02-22 10:39:42 GMT 36.546162 -84.303650 29,000 133 411 64
2019-02-22 10:39:36 GMT 36.552704 -84.312172 29,000 133 410 0
2019-02-22 10:39:31 GMT 36.559242 -84.320656 29,000 133 409 -64
2019-02-22 10:39:26 GMT 36.566345 -84.329849 29,000 133 408 64
2019-02-22 10:39:20 GMT 36.572323 -84.337662 29,000 133 408 -128
2019-02-22 10:39:14 GMT 36.580444 -84.348167 29,000 133 408 64
2019-02-22 10:39:09 GMT 36.586670 -84.356293 29,000 133 408 64
2019-02-22 10:39:05 GMT 36.594250 -84.366119 29,000 133 408 64
2019-02-22 10:39:00 GMT 36.600174 -84.373795 29,000 133 408 0
2019-02-22 10:38:53 GMT 36.607590 -84.383469 29,000 133 410 -64
2019-02-22 10:38:48 GMT 36.614639 -84.392708 29,000 133 410 -64
2019-02-22 10:38:45 GMT 36.619900 -84.399544 29,000 133 410 64
2019-02-22 10:38:42 GMT 36.622284 -84.402580 29,000 134 409 64
2019-02-22 10:38:38 GMT 36.629700 -84.411964 29,000 135 408 0
2019-02-22 10:38:33 GMT 36.635960 -84.419357 29,000 137 404 -64
2019-02-22 10:38:28 GMT 36.641876 -84.425873 29,000 139 402 -64
2019-02-22 10:38:22 GMT 36.651077 -84.435196 29,000 142 399 0
2019-02-22 10:38:18 GMT 36.657700 -84.441383 29,000 144 396 64
2019-02-22 10:38:12 GMT 36.668594 -84.450676 29,000 147 392 64
2019-02-22 10:38:07 GMT 36.673187 -84.454247 29,000 148 390 64
2019-02-22 10:38:00 GMT 36.684586 -84.462318 29,000 151 387 -64
2019-02-22 10:37:57 GMT 36.689960 -84.465813 29,000 152 385 -64
2019-02-22 10:37:48 GMT 36.702019 -84.473587 29,000 152 385 -64
2019-02-22 10:37:45 GMT 36.706787 -84.476624 29,000 152 385 64
2019-02-22 10:37:39 GMT 36.718544 -84.484100 29,000 152 385 64
2019-02-22 10:37:35 GMT 36.724174 -84.487724 29,000 152 385 64
2019-02-22 10:37:30 GMT 36.731812 -84.492638 29,000 152 385 -64
2019-02-22 10:37:24 GMT 36.740749 -84.498360 29,000 152 386 64
2019-02-22 10:37:20 GMT 36.748123 -84.503059 29,000 152 387 128
2019-02-22 10:37:12 GMT 36.760532 -84.511040 29,000 152 388 -128
2019-02-22 10:37:09 GMT 36.764862 -84.513847 29,000 152 388 -192
2019-02-22 10:37:02 GMT 36.777512 -84.521889 29,000 152 387 64
2019-02-22 10:36:58 GMT 36.782272 -84.524956 29,000 152 387 0
2019-02-22 10:36:51 GMT 36.794083 -84.532532 29,000 152 388 64
2019-02-22 10:36:48 GMT 36.798569 -84.535393 29,000 152 388 64
2019-02-22 10:36:41 GMT 36.815826 -84.546494 29,000 152 389 -64
2019-02-22 10:36:32 GMT 36.824497 -84.552010 29,000 152 389 192
2019-02-22 10:36:27 GMT 36.831848 -84.556732 29,000 152 390 64
2019-02-22 10:36:21 GMT 36.843815 -84.564400 29,000 152 391 -64
2019-02-22 10:36:16 GMT 36.848843 -84.567673 29,000 152 391 0
2019-02-22 10:36:11 GMT 36.858307 -84.573692 29,000 152 391 64
2019-02-22 10:36:06 GMT 36.865997 -84.578659 29,000 152 390 64
2019-02-22 10:36:01 GMT 36.874073 -84.583862 29,000 152 390 -128
2019-02-22 10:35:56 GMT 36.882408 -84.589172 29,000 152 390 -64
2019-02-22 10:35:51 GMT 36.890442 -84.594376 29,000 152 390 -64
2019-02-22 10:35:45 GMT 36.899460 -84.600159 29,000 152 390 -64
2019-02-22 10:35:41 GMT 36.905869 -84.604256 29,000 152 389 64
2019-02-22 10:35:34 GMT 36.916344 -84.611031 29,000 152 388 64
2019-02-22 10:35:29 GMT 36.927189 -84.618011 29,000 152 388 0
2019-02-22 10:35:24 GMT 36.933662 -84.622131 29,000 152 388 -128
2019-02-22 10:35:14 GMT 36.949677 -84.632462 29,000 152 388 0
2019-02-22 10:35:07 GMT 36.962383 -84.640640 29,000 152 386 128
2019-02-22 10:35:02 GMT 36.967503 -84.643929 29,000 152 386 128
2019-02-22 10:34:52 GMT 36.983379 -84.654137 29,000 152 385 0
2019-02-22 10:34:42 GMT 37.000416 -84.665184 29,000 152 385 64
2019-02-22 10:34:31 GMT 37.016647 -84.675667 29,000 152 385 64
2019-02-22 10:34:20 GMT 37.033981 -84.686798 29,000 152 385 0
2019-02-22 10:34:11 GMT 37.049606 -84.696877 29,000 152 384 -64
2019-02-22 10:34:00 GMT 37.066681 -84.707924 29,000 152 382 64
2019-02-22 10:33:51 GMT 37.082069 -84.717842 29,000 152 381 0
2019-02-22 10:33:39 GMT 37.099571 -84.729187 29,000 152 380 0
2019-02-22 10:33:33 GMT 37.110233 -84.736053 29,000 152 380 0
2019-02-22 10:33:29 GMT 37.115868 -84.739700 29,000 152 380 0
2019-02-22 10:33:22 GMT 37.126526 -84.746628 29,000 152 380 64
2019-02-22 10:33:19 GMT 37.131226 -84.749641 29,000 152 379 0
2019-02-22 10:33:12 GMT 37.143082 -84.757301 29,000 152 381 64
2019-02-22 10:33:07 GMT 37.150921 -84.762390 29,000 152 379 -64
2019-02-22 10:33:00 GMT 37.159626 -84.768059 29,000 152 379 -64
2019-02-22 10:32:56 GMT 37.166515 -84.772476 29,000 152 379 64
2019-02-22 10:32:50 GMT 37.176178 -84.778809 29,000 152 379 0
2019-02-22 10:32:47 GMT 37.182266 -84.782722 29,000 152 381 -64
2019-02-22 10:32:40 GMT 37.193069 -84.789734 29,000 152 381 128
2019-02-22 10:32:35 GMT 37.199009 -84.793617 29,000 152 381 64
2019-02-22 10:32:28 GMT 37.209621 -84.800545 29,000 152 382 64
2019-02-22 10:32:25 GMT 37.214996 -84.804054 29,000 152 382 64
2019-02-22 10:32:20 GMT 37.224426 -84.810188 29,000 152 384 -64
2019-02-22 10:32:17 GMT 37.229462 -84.813461 29,000 152 384 -64
2019-02-22 10:32:14 GMT 37.231689 -84.814873 29,000 152 384 -128
2019-02-22 10:32:08 GMT 37.242393 -84.821854 29,000 152 383 128
2019-02-22 10:32:04 GMT 37.248074 -84.825562 28,975 152 381 640
2019-02-22 10:31:58 GMT 37.258549 -84.832367 28,875 152 379 1024
2019-02-22 10:31:54 GMT 37.264320 -84.836067 28,825 152 378 896
2019-02-22 10:31:47 GMT 37.275192 -84.843147 28,725 152 376 960
2019-02-22 10:31:43 GMT 37.281078 -84.846931 28,650 152 375 1024
2019-02-22 10:31:37 GMT 37.290951 -84.853325 28,550 152 373 1088
2019-02-22 10:31:31 GMT 37.298447 -84.858223 28,450 152 373 1216
2019-02-22 10:31:27 GMT 37.307648 -84.864243 28,325 152 373 1536
2019-02-22 10:31:22 GMT 37.313187 -84.867867 28,225 152 373 1472
2019-02-22 10:31:16 GMT 37.323120 -84.874290 28,075 152 371 1216
2019-02-22 10:31:12 GMT 37.329849 -84.878677 28,000 152 371 1088
2019-02-22 10:31:07 GMT 37.336578 -84.883057 27,925 152 370 1152
2019-02-22 10:31:04 GMT 37.339600 -84.885048 27,875 152 370 1216
2019-02-22 10:31:00 GMT 37.346283 -84.889427 27,800 152 369 1280
2019-02-22 10:30:54 GMT 37.356583 -84.896149 27,650 152 369 1472
2019-02-22 10:30:51 GMT 37.361755 -84.899475 27,550 152 368 1472
2019-02-22 10:30:44 GMT 37.372284 -84.906380 27,400 152 368 1472
2019-02-22 10:30:38 GMT 37.379608 -84.911171 27,275 152 368 1344
2019-02-22 10:30:33 GMT 37.388031 -84.916664 27,175 152 367 1216
2019-02-22 10:30:30 GMT 37.393524 -84.920227 27,100 152 367 1216
2019-02-22 10:30:25 GMT 37.401047 -84.925156 27,000 152 366 1280
2019-02-22 10:30:22 GMT 37.405792 -84.928261 26,925 152 365 1280
2019-02-22 10:30:19 GMT 37.409088 -84.930397 26,900 152 364 1216
2019-02-22 10:30:12 GMT 37.420830 -84.938049 26,725 152 362 1152
2019-02-22 10:30:09 GMT 37.425201 -84.940857 26,675 152 361 1152
2019-02-22 10:30:01 GMT 37.435959 -84.947922 26,525 152 360 1280
2019-02-22 10:29:58 GMT 37.440289 -84.950768 26,475 152 359 1216
2019-02-22 10:29:51 GMT 37.451294 -84.957916 26,325 152 357 1152
2019-02-22 10:29:47 GMT 37.456303 -84.961220 26,125 152 356 1152
2019-02-22 10:29:42 GMT 37.463940 -84.966232 26,150 152 356 1088
2019-02-22 10:29:37 GMT 37.472130 -84.971542 26,050 152 356 1088
2019-02-22 10:29:32 GMT 37.479626 -84.976440 25,975 152 355 1088
2019-02-22 10:29:23 GMT 37.491119 -84.983978 25,825 152 355 1216
2019-02-22 10:29:20 GMT 37.494846 -84.986412 25,775 152 354 1216
2019-02-22 10:29:15 GMT 37.502747 -84.991577 25,650 152 354 1280
2019-02-22 10:29:09 GMT 37.518124 -85.001701 25,475 152 353 1280
2019-02-22 10:29:04 GMT 37.518124 -85.001701 25,225 152 353 1280
2019-02-22 10:28:54 GMT 37.532600 -85.011192 25,200 152 352 1216
2019-02-22 10:28:47 GMT 37.545311 -85.019554 25,050 152 352 1088
2019-02-22 10:28:44 GMT 37.548199 -85.021400 24,825 152 352 1088
2019-02-22 10:28:36 GMT 37.559788 -85.029045 24,875 152 348 1088
2019-02-22 10:28:32 GMT 37.565002 -85.032448 24,825 152 349 896
2019-02-22 10:28:24 GMT 37.576218 -85.039787 24,750 152 348 896
2019-02-22 10:28:20 GMT 37.582787 -85.044090 24,625 152 347 1344
2019-02-22 10:28:14 GMT 37.592102 -85.050194 24,475 152 346 1344
2019-02-22 10:28:11 GMT 37.594437 -85.051712 24,450 152 346 1344
2019-02-22 10:28:08 GMT 37.600159 -85.055450 24,125 152 344 1664
2019-02-22 10:28:02 GMT 37.608490 -85.060944 24,175 152 343 1728
2019-02-22 10:27:51 GMT 37.623566 -85.070839 23,875 152 342 1664
2019-02-22 10:27:40 GMT 37.638649 -85.080688 23,600 152 341 1728
2019-02-22 10:27:31 GMT 37.652481 -85.089813 23,300 152 340 1536
2019-02-22 10:27:28 GMT 37.654587 -85.091156 23,275 152 340 1536
2019-02-22 10:27:18 GMT 37.669418 -85.100937 22,925 152 340 2432
2019-02-22 10:27:08 GMT 37.685013 -85.111320 22,475 152 343 2432
2019-02-22 10:26:58 GMT 37.698093 -85.119919 22,125 152 345 2240
2019-02-22 10:26:47 GMT 37.713043 -85.129784 21,775 152 346 1856
2019-02-22 10:26:35 GMT 37.729889 -85.140877 21,425 152 344 1664
2019-02-22 10:26:26 GMT 37.743668 -85.150002 21,175 152 342 1600
2019-02-22 10:26:15 GMT 37.758472 -85.159744 20,950 152 339 1664
2019-02-22 10:26:04 GMT 37.773743 -85.169815 20,575 152 337 1728
2019-02-22 10:25:54 GMT 37.788116 -85.179283 20,300 152 334 1600
2019-02-22 10:25:43 GMT 37.802856 -85.188980 20,025 152 330 1472
2019-02-22 10:25:33 GMT 37.817036 -85.198257 19,750 152 325 1664
2019-02-22 10:25:21 GMT 37.831146 -85.207504 19,450 152 322 1984
2019-02-22 10:25:11 GMT 37.845200 -85.216766 19,025 152 321 2560
2019-02-22 10:25:01 GMT 37.859207 -85.226028 18,525 152 322 3008
2019-02-22 10:24:50 GMT 37.874130 -85.235847 17,950 152 326 3264
2019-02-22 10:24:38 GMT 37.895233 -85.249870 17,000 152 334 3904
2019-02-22 10:24:28 GMT 37.903111 -85.255096 16,625 152 339 3328
2019-02-22 10:24:24 GMT 37.909348 -85.259216 16,400 152 339 2816
2019-02-22 10:24:19 GMT 37.914238 -85.262505 16,225 152 340 2880
2019-02-22 10:24:08 GMT 37.931648 -85.274025 15,600 152 342 3328
2019-02-22 10:23:58 GMT 37.944214 -85.282364 14,800 152 348 3392
2019-02-22 10:23:55 GMT 37.949982 -85.286224 14,800 152 348 3392
2019-02-22 10:23:45 GMT 37.962570 -85.294579 14,300 152 349 3264
2019-02-22 10:23:36 GMT 37.976349 -85.303696 13,825 152 350 2752
2019-02-22 10:23:32 GMT 37.982296 -85.307648 13,650 152 352 3968
2019-02-22 10:23:27 GMT 37.988297 -85.311699 13,450 151 348 2752
2019-02-22 10:23:24 GMT 37.993561 -85.315208 13,250 152 348 3456
2019-02-22 10:23:20 GMT 37.999428 -85.319107 13,025 152 352 3968
2019-02-22 10:23:15 GMT 38.007339 -85.324326 12,675 152 351 3968
2019-02-22 10:23:04 GMT 38.023308 -85.334869 12,050 150 355 2048
2019-02-22 10:22:56 GMT 38.032852 -85.342033 11,875 143 351 896
2019-02-22 10:22:53 GMT 38.038834 -85.347702 11,800 138 345 1280
2019-02-22 10:22:42 GMT 38.050690 -85.362312 11,525 130 340 2048
2019-02-22 10:22:30 GMT 38.060642 -85.380188 11,150 117 337 1856
2019-02-22 10:22:26 GMT 38.063530 -85.387177 11,025 109 334 2112
2019-02-22 10:22:20 GMT 38.067261 -85.398422 10,800 109 334 2112
2019-02-22 10:22:16 GMT 38.069397 -85.406998 10,650 105 333 1984
2019-02-22 10:22:13 GMT 38.070374 -85.411751 10,575 103 332 1920
2019-02-22 10:22:10 GMT 38.071609 -85.419579 10,450 98 329 1664
2019-02-22 10:22:04 GMT 38.072514 -85.428970 10,325 94 326 1344
2019-02-22 10:21:59 GMT 38.072800 -85.439270 10,225 90 321 1088
2019-02-22 10:21:52 GMT 38.072887 -85.450226 10,150 90 315 832
2019-02-22 10:21:48 GMT 38.072979 -85.460495 10,075 90 308 704
2019-02-22 10:21:42 GMT 38.073029 -85.468727 10,000 90 301 1216
2019-02-22 10:21:37 GMT 38.073120 -85.479240 9,825 90 296 2112
2019-02-22 10:21:30 GMT 38.073212 -85.489220 9,575 90 293 3072
2019-02-22 10:21:26 GMT 38.073303 -85.498528 9,275 90 294 3264
2019-02-22 10:21:21 GMT 38.073353 -85.505096 9,100 90 294 3072
2019-02-22 10:21:15 GMT 38.073395 -85.515068 8,425 90 291 2304
2019-02-22 10:21:11 GMT 38.073444 -85.522232 8,650 90 293 2496
2019-02-22 10:21:05 GMT 38.073532 -85.534874 8,225 92 278 0
2019-02-22 10:21:00 GMT 38.073540 -85.540749 8,225 90 288 2304
2019-02-22 10:20:54 GMT 38.073586 -85.553406 7,825 92 278 0
2019-02-22 10:20:50 GMT 38.073578 -85.557838 7,825 90 284 2432
2019-02-22 10:20:44 GMT 38.073818 -85.569466 7,525 92 281 2624
2019-02-22 10:20:40 GMT 38.073944 -85.574966 7,375 92 280 2752
2019-02-22 10:20:32 GMT 38.074402 -85.590103 6,950 92 278 2816
2019-02-22 10:20:29 GMT 38.074493 -85.592674 6,875 92 277 2944
2019-02-22 10:20:22 GMT 38.074997 -85.610146 6,300 92 276 3072
2019-02-22 10:20:18 GMT 38.074997 -85.610146 6,325 92 276 3072
2019-02-22 10:20:12 GMT 38.075317 -85.621773 5,950 92 276 3136
2019-02-22 10:20:08 GMT 38.075455 -85.627029 5,800 92 276 3136
2019-02-22 10:20:01 GMT 38.075821 -85.639679 5,225 92 275 3008
2019-02-22 10:19:58 GMT 38.075958 -85.643623 5,250 92 275 3072
2019-02-22 10:19:47 GMT 38.076424 -85.660820 4,750 91 273 2752
2019-02-22 10:19:40 GMT 38.076752 -85.674194 4,375 91 269 2432
2019-02-22 10:19:29 GMT 38.077030 -85.690491 4,050 90 259 1536
2019-02-22 10:19:26 GMT 38.077057 -85.693069 4,000 91 257 1472
2019-02-22 10:19:16 GMT 38.078293 -85.708435 3,825 105 243 704
2019-02-22 10:19:05 GMT 38.083557 -85.721527 3,700 126 229 960
2019-02-22 10:18:57 GMT 38.091087 -85.729187 3,400 152 217 2496
2019-02-22 10:18:44 GMT 38.102051 -85.733040 2,825 177 219 2944
2019-02-22 10:18:34 GMT 38.112534 -85.733093 2,425 180 214 1472
2019-02-22 10:18:23 GMT 38.122650 -85.733124 2,275 179 196 832
2019-02-22 10:18:12 GMT 38.131989 -85.733154 2,125 180 174 1344
2019-02-22 10:18:01 GMT 38.140575 -85.733604 1,825 172 160 1856
2019-02-22 10:17:52 GMT 38.147232 -85.735634 1,525 162 148 2496
2019-02-22 10:17:40 GMT 38.154678 -85.738441 1,025 165 151 2688
2019-02-22 10:17:31 GMT 38.161243 -85.740471 600 166 154 2816
2019-02-22 10:17:20 GMT 38.168793 -85.742798 150 166 158 768
2019-02-22 10:17:09 GMT 38.176254 -85.745255 150 165 127 0
2019-02-22 10:16:58 GMT 38.181152 -85.746834 150 165 82 -64
2019-02-22 10:16:49 GMT 38.183647 -85.747688 0 165 38
2019-02-22 10:16:34 GMT 38.184612 -85.747856 0 227 11
2019-02-22 10:16:26 GMT 38.184792 -85.747330 0 255 12
2019-02-22 10:14:22 GMT 38.184799 -85.746620 0 300 0
2019-02-22 10:14:12 GMT 38.184757 -85.746552 0 315 4
2019-02-22 10:14:01 GMT 38.184532 -85.746368 0 345 6
2019-02-22 10:13:47 GMT 38.184116 -85.746216 0 345 8
2019-02-22 10:13:32 GMT 38.183636 -85.746056 0 345 7
2019-02-22 10:13:29 GMT 38.183544 -85.746025 0 345 7
2019-02-22 10:13:18 GMT 38.183167 -85.745911 0 345 9
2019-02-22 10:13:02 GMT 38.182537 -85.745705 0 345 10
2019-02-22 10:12:58 GMT 38.182343 -85.745636 0 345 11
2019-02-22 10:12:47 GMT 38.181831 -85.745453 0 345 12
2019-02-22 10:12:30 GMT 38.180935 -85.745125 0 331 11
2019-02-22 10:12:26 GMT 38.180737 -85.744949 0 309 10
2019-02-22 10:12:16 GMT 38.180557 -85.744476 0 281 9
2019-02-22 10:12:03 GMT 38.180599 -85.743843 0 255 9
2019-02-22 10:11:52 GMT 38.180702 -85.743301 0 255 9
2019-02-22 10:11:44 GMT 38.180843 -85.742897 0 225 9
2019-02-22 10:11:33 GMT 38.181232 -85.742706 0 165 9
2019-02-22 10:11:13 GMT 38.181976 -85.743103 0 182 8
2019-02-22 10:10:57 GMT 38.182449 -85.742935 0 210 5
2019-02-22 10:10:52 GMT 38.182518 -85.742874 0 216 4
2019-02-22 10:07:44 GMT 38.182606 -85.742317 0 137 3
2019-02-22 10:07:07 GMT 38.182507 -85.742203 0 137 0
2019-02-22 10:06:56 GMT 38.182503 -85.742210 0 137 0
2019-02-22 10:06:41 GMT 38.182503 -85.742203 0 137 0

Making use of Plane Finder data

You are free to use the raw flight data, aircraft information and images provided in this report for your own purposes provided the data is correctly attributed to Plane Finder. We ask that you please credit Plane Finder and link to planefinder.net in close proximity to the content.

Optionally one of the following logos (no smaller then 150x24px) can be used and must link to planefinder.net

Embedding the Plane Finder map

You are welcome to embed the Plane Finder playback map on your website to offer visitors a more interactive experience. We suggest using the following HTML code:

<iframe src="//planefinder.net/data/report/AA4349-N425YX-7700-squawk-2019-02-22/map" width="800" height="600" seamless="seamless"></iframe>

Where our data comes from

Plane Finder has a global network of data feeds and antenna radars that receive data broadcast directly from aircraft. The primary technologies used are ADS-B and MLAT. We also show feeds from the FAA and a FLARM glider feed.

Click here to find out more about the Plane Finder network.

How we collect our data